Time;durP1;ratioP1;P1;durP2;ratioP2;P2;SDS_P1;SDS_P2;PMS_P1;PMS_P2;Temp;Humidity;BMP_temperature;BMP_pressure;BME280_temperature;BME280_humidity;BME280_pressure;Samples;Min_cycle;Max_cycle;Signal;HPM_P1;HPM_P2
2023/10/06 00:00:19;;;;;;;6.90;3.67;;;;;;;;;;5115085;28;20198;-77
2023/10/06 00:02:48;;;;;;;6.33;3.07;;;;;;;;;;5115103;28;20207;-78
2023/10/06 00:05:15;;;;;;;5.47;3.33;;;;;;;;;;5115059;28;20195;-78
2023/10/06 00:07:45;;;;;;;5.17;3.10;;;;;;;;;;5115324;28;20198;-77
2023/10/06 00:10:19;;;;;;;6.43;3.50;;;;;;;;;;5114573;28;20194;-77
2023/10/06 00:12:53;;;;;;;5.53;3.00;;;;;;;;;;5114829;28;20195;-77
2023/10/06 00:15:26;;;;;;;6.80;3.27;;;;;;;;;;5114615;28;20239;-77
2023/10/06 00:17:56;;;;;;;9.07;3.33;;;;;;;;;;5114936;28;20253;-77
2023/10/06 00:20:33;;;;;;;6.77;3.60;;;;;;;;;;5114678;28;20815;-77
2023/10/06 00:23:05;;;;;;;7.03;3.27;;;;;;;;;;5114652;28;20200;-77
2023/10/06 00:25:32;;;;;;;9.00;3.30;;;;;;;;;;5114140;28;20194;-77
2023/10/06 00:28:00;;;;;;;8.07;3.43;;;;;;;;;;5114566;28;20717;-76
2023/10/06 00:30:27;;;;;;;5.80;3.20;;;;;;;;;;5114559;28;20222;-77
2023/10/06 00:32:56;;;;;;;7.17;3.53;;;;;;;;;;5114992;28;20234;-77
2023/10/06 00:35:30;;;;;;;6.03;3.27;;;;;;;;;;5114634;28;20190;-77
2023/10/06 00:38:12;;;;;;;9.23;3.27;;;;;;;;;;5114410;28;20249;-77
2023/10/06 00:40:44;;;;;;;6.23;3.37;;;;;;;;;;5114236;28;20228;-77
2023/10/06 00:43:15;;;;;;;5.77;3.17;;;;;;;;;;5114351;28;20288;-77
2023/10/06 00:45:44;;;;;;;7.27;3.07;;;;;;;;;;5113757;28;20246;-78
2023/10/06 00:48:14;;;;;;;7.63;2.90;;;;;;;;;;5114652;28;20322;-77
2023/10/06 00:50:42;;;;;;;7.13;3.13;;;;;;;;;;5113857;28;20601;-77
2023/10/06 00:53:12;;;;;;;6.03;2.97;;;;;;;;;;5113786;28;20199;-78
2023/10/06 00:55:42;;;;;;;5.60;3.10;;;;;;;;;;5114054;28;20214;-77
2023/10/06 00:58:11;;;;;;;5.97;3.27;;;;;;;;;;5114173;28;20612;-77
2023/10/06 01:00:41;;;;;;;6.63;3.10;;;;;;;;;;5113939;28;20611;-77
2023/10/06 01:03:14;;;;;;;7.20;3.30;;;;;;;;;;5114220;28;20296;-76
2023/10/06 01:05:45;;;;;;;4.77;3.07;;;;;;;;;;5113889;28;20201;-77
2023/10/06 01:08:13;;;;;;;6.30;3.10;;;;;;;;;;5113196;28;20205;-77
2023/10/06 01:10:41;;;;;;;8.00;3.27;;;;;;;;;;5113982;28;20218;-77
2023/10/06 01:13:12;;;;;;;5.80;3.50;;;;;;;;;;5114201;28;20226;-77
2023/10/06 01:15:45;;;;;;;4.43;3.00;;;;;;;;;;5113453;28;20237;-77
2023/10/06 01:18:19;;;;;;;6.67;3.20;;;;;;;;;;5113316;28;20251;-77
2023/10/06 01:20:48;;;;;;;6.07;3.10;;;;;;;;;;5113789;28;20225;-77
2023/10/06 01:23:21;;;;;;;11.27;3.70;;;;;;;;;;5113346;28;20221;-77
2023/10/06 01:25:50;;;;;;;7.70;3.60;;;;;;;;;;5113405;28;20289;-77
2023/10/06 01:28:18;;;;;;;6.00;3.30;;;;;;;;;;5113179;28;20197;-77
2023/10/06 01:30:46;;;;;;;6.77;3.53;;;;;;;;;;5113342;28;20204;-76
2023/10/06 01:33:13;;;;;;;7.03;2.97;;;;;;;;;;5113124;28;20530;-78
2023/10/06 01:35:42;;;;;;;6.20;3.40;;;;;;;;;;5113297;28;20221;-78
2023/10/06 01:38:20;;;;;;;6.33;3.47;;;;;;;;;;5112884;28;20190;-77
2023/10/06 01:40:51;;;;;;;6.40;3.30;;;;;;;;;;5112897;27;20242;-77
2023/10/06 01:43:22;;;;;;;7.37;3.63;;;;;;;;;;5113677;28;20288;-77
2023/10/06 01:45:50;;;;;;;7.43;3.43;;;;;;;;;;5112801;28;20750;-77
2023/10/06 01:48:23;;;;;;;7.00;3.20;;;;;;;;;;5112811;28;20198;-77
2023/10/06 01:50:54;;;;;;;6.77;3.53;;;;;;;;;;5112456;28;20193;-77
2023/10/06 01:53:21;;;;;;;7.03;3.83;;;;;;;;;;5112706;28;20752;-77
2023/10/06 01:55:50;;;;;;;6.67;3.47;;;;;;;;;;5105320;28;20193;-76
2023/10/06 01:58:18;;;;;;;7.97;3.50;;;;;;;;;;5096836;28;20225;-77
2023/10/06 02:00:48;;;;;;;5.37;3.00;;;;;;;;;;5092067;28;20651;-77
2023/10/06 02:03:17;;;;;;;7.47;3.20;;;;;;;;;;5111307;28;20267;-77
2023/10/06 02:05:44;;;;;;;8.47;3.67;;;;;;;;;;5112182;28;20205;-77
2023/10/06 02:08:14;;;;;;;6.57;3.30;;;;;;;;;;5112724;28;20696;-76
2023/10/06 02:10:42;;;;;;;7.20;3.43;;;;;;;;;;5112983;28;20553;-76
2023/10/06 02:13:11;;;;;;;7.73;3.30;;;;;;;;;;5112326;28;20201;-77
2023/10/06 02:15:38;;;;;;;7.23;3.10;;;;;;;;;;5103781;28;20317;-76
2023/10/06 02:18:12;;;;;;;6.50;3.20;;;;;;;;;;5097563;28;20201;-77
2023/10/06 02:20:41;;;;;;;7.20;3.67;;;;;;;;;;5112071;28;20213;-77
2023/10/06 02:23:08;;;;;;;7.47;3.37;;;;;;;;;;5112343;28;20233;-77
2023/10/06 02:25:36;;;;;;;5.30;3.23;;;;;;;;;;5112340;28;20201;-77
2023/10/06 02:28:05;;;;;;;5.17;3.23;;;;;;;;;;5112545;28;20198;-77
2023/10/06 02:30:37;;;;;;;5.33;3.03;;;;;;;;;;5112349;28;20251;-77
2023/10/06 02:33:05;;;;;;;5.07;3.37;;;;;;;;;;5112200;28;20328;-76
2023/10/06 02:35:34;;;;;;;7.03;3.53;;;;;;;;;;5111590;28;20259;-77
2023/10/06 02:38:05;;;;;;;8.20;3.63;;;;;;;;;;5112272;28;20222;-77
2023/10/06 02:40:44;;;;;;;4.83;3.23;;;;;;;;;;5112224;28;20194;-76
2023/10/06 02:43:13;;;;;;;9.37;3.70;;;;;;;;;;5112237;28;20203;-77
2023/10/06 02:45:40;;;;;;;7.10;3.93;;;;;;;;;;5112340;28;20283;-77
2023/10/06 02:48:15;;;;;;;6.13;3.70;;;;;;;;;;5112142;28;20201;-77
2023/10/06 02:50:45;;;;;;;6.87;3.37;;;;;;;;;;5111444;28;20209;-77
2023/10/06 02:53:20;;;;;;;6.73;3.50;;;;;;;;;;5111955;28;20282;-77
2023/10/06 02:55:49;;;;;;;5.77;3.37;;;;;;;;;;5111818;28;20196;-77
2023/10/06 02:58:26;;;;;;;7.00;3.20;;;;;;;;;;5111845;28;20201;-78
2023/10/06 03:00:55;;;;;;;5.73;3.47;;;;;;;;;;5111923;28;20194;-77
2023/10/06 03:03:27;;;;;;;5.83;3.40;;;;;;;;;;5111894;28;20197;-77
2023/10/06 03:05:55;;;;;;;6.13;3.20;;;;;;;;;;5111393;28;20201;-76
2023/10/06 03:08:26;;;;;;;7.03;3.20;;;;;;;;;;5111820;28;20190;-77
2023/10/06 03:10:53;;;;;;;5.90;3.00;;;;;;;;;;5112284;28;20664;-77
2023/10/06 03:13:24;;;;;;;8.20;3.40;;;;;;;;;;5116111;28;20229;-77
2023/10/06 03:15:51;;;;;;;5.67;3.10;;;;;;;;;;5116023;28;20233;-77
2023/10/06 03:18:20;;;;;;;6.77;3.47;;;;;;;;;;5115280;28;20274;-77
2023/10/06 03:20:49;;;;;;;7.13;3.40;;;;;;;;;;5115746;28;20246;-77
2023/10/06 03:23:26;;;;;;;8.20;3.53;;;;;;;;;;5116001;28;20224;-77
2023/10/06 03:25:57;;;;;;;6.60;3.60;;;;;;;;;;5115834;28;20193;-77
2023/10/06 03:28:31;;;;;;;6.07;3.50;;;;;;;;;;5115961;28;20840;-77
2023/10/06 03:31:02;;;;;;;8.33;3.50;;;;;;;;;;5115576;28;20189;-77
2023/10/06 03:33:31;;;;;;;6.10;3.17;;;;;;;;;;5115349;28;20221;-77
2023/10/06 03:35:59;;;;;;;5.10;3.17;;;;;;;;;;5115427;28;20243;-77
2023/10/06 03:38:34;;;;;;;7.47;3.50;;;;;;;;;;5115589;28;20201;-77
2023/10/06 03:41:19;;;;;;;4.50;3.33;;;;;;;;;;5115704;28;20207;-77
2023/10/06 03:43:51;;;;;;;7.10;3.47;;;;;;;;;;5115532;28;20703;-76
2023/10/06 03:46:19;;;;;;;5.50;3.47;;;;;;;;;;5115242;28;20250;-76
2023/10/06 03:48:49;;;;;;;6.50;3.37;;;;;;;;;;5115148;28;20194;-77
2023/10/06 03:51:17;;;;;;;7.27;3.60;;;;;;;;;;5115382;28;20200;-77
2023/10/06 03:53:47;;;;;;;6.43;3.87;;;;;;;;;;5114853;28;20193;-77
2023/10/06 03:56:16;;;;;;;5.90;3.57;;;;;;;;;;5114959;28;20200;-77
2023/10/06 03:58:44;;;;;;;7.27;3.33;;;;;;;;;;5115186;28;20225;-76
2023/10/06 04:01:11;;;;;;;7.47;3.73;;;;;;;;;;5115520;28;20193;-76
2023/10/06 04:03:39;;;;;;;7.07;3.83;;;;;;;;;;5114707;28;20698;-77
2023/10/06 04:06:12;;;;;;;5.77;3.50;;;;;;;;;;5114873;28;20627;-76
2023/10/06 04:08:44;;;;;;;7.13;3.80;;;;;;;;;;5115166;28;20540;-77
2023/10/06 04:11:14;;;;;;;6.60;3.63;;;;;;;;;;5114983;28;20259;-77
2023/10/06 04:13:41;;;;;;;5.37;3.60;;;;;;;;;;5114946;28;20229;-77
2023/10/06 04:16:08;;;;;;;8.03;3.83;;;;;;;;;;5114390;28;20257;-77
2023/10/06 04:18:36;;;;;;;6.90;3.80;;;;;;;;;;5114702;28;20614;-77
2023/10/06 04:21:03;;;;;;;7.63;3.50;;;;;;;;;;5114729;28;20636;-76
2023/10/06 04:23:32;;;;;;;6.40;3.77;;;;;;;;;;5114196;28;20208;-77
2023/10/06 04:25:59;;;;;;;6.73;4.00;;;;;;;;;;5114727;28;20201;-77
2023/10/06 04:28:27;;;;;;;5.57;3.70;;;;;;;;;;5111071;28;20285;-76
2023/10/06 04:30:57;;;;;;;6.37;3.60;;;;;;;;;;5104822;28;20232;-77
2023/10/06 04:33:28;;;;;;;7.37;3.70;;;;;;;;;;5101381;28;20228;-77
2023/10/06 04:35:56;;;;;;;5.37;3.83;;;;;;;;;;5113278;28;20198;-76
2023/10/06 04:38:23;;;;;;;7.53;3.80;;;;;;;;;;5094152;28;20247;-76
2023/10/06 04:40:52;;;;;;;7.13;3.80;;;;;;;;;;5094161;28;20250;-76
2023/10/06 04:43:20;;;;;;;8.73;3.40;;;;;;;;;;5094093;28;20252;-77
2023/10/06 04:45:48;;;;;;;9.53;4.30;;;;;;;;;;5093477;28;20286;-77
2023/10/06 04:48:18;;;;;;;8.83;4.07;;;;;;;;;;5093810;28;20218;-77
2023/10/06 04:50:46;;;;;;;5.37;3.40;;;;;;;;;;5094310;28;20297;-77
2023/10/06 04:53:14;;;;;;;7.07;3.80;;;;;;;;;;5093843;28;20240;-76
2023/10/06 04:55:44;;;;;;;6.10;3.93;;;;;;;;;;5093232;28;20197;-77
2023/10/06 04:58:14;;;;;;;6.13;3.30;;;;;;;;;;5093546;28;20218;-76
2023/10/06 05:00:41;;;;;;;8.60;3.60;;;;;;;;;;5093190;28;20282;-77
2023/10/06 05:03:10;;;;;;;6.97;3.60;;;;;;;;;;5093437;28;20229;-77
2023/10/06 05:05:38;;;;;;;7.10;3.50;;;;;;;;;;5093487;28;20327;-75
2023/10/06 05:08:09;;;;;;;6.80;3.70;;;;;;;;;;5093533;28;20190;-76
2023/10/06 05:10:36;;;;;;;7.27;3.90;;;;;;;;;;5107943;28;20701;-76
2023/10/06 05:13:06;;;;;;;7.07;3.77;;;;;;;;;;5113344;28;20259;-76
2023/10/06 05:15:34;;;;;;;5.60;3.70;;;;;;;;;;5113065;28;20229;-76
2023/10/06 05:18:03;;;;;;;5.97;3.57;;;;;;;;;;5113520;28;20666;-75
2023/10/06 05:20:31;;;;;;;7.63;3.90;;;;;;;;;;5113716;28;20251;-76
2023/10/06 05:23:02;;;;;;;8.23;3.57;;;;;;;;;;5113896;28;20246;-75
2023/10/06 05:25:29;;;;;;;7.23;3.60;;;;;;;;;;5113274;28;20197;-76
2023/10/06 05:27:59;;;;;;;6.70;3.77;;;;;;;;;;5113490;28;20201;-74
2023/10/06 05:30:27;;;;;;;6.57;3.93;;;;;;;;;;5113396;28;20196;-76
2023/10/06 05:32:58;;;;;;;6.60;4.37;;;;;;;;;;5110625;28;20249;-76
2023/10/06 05:35:25;;;;;;;6.80;3.97;;;;;;;;;;5111399;28;20205;-76
2023/10/06 05:37:53;;;;;;;6.83;4.50;;;;;;;;;;5102650;28;20195;-76
2023/10/06 05:40:20;;;;;;;7.10;3.90;;;;;;;;;;5111513;28;20203;-76
2023/10/06 05:42:49;;;;;;;7.83;3.97;;;;;;;;;;5112760;28;20190;-76
2023/10/06 05:45:18;;;;;;;5.40;3.83;;;;;;;;;;5074823;28;20588;-75
2023/10/06 05:47:46;;;;;;;8.60;3.97;;;;;;;;;;5105490;28;20202;-74
2023/10/06 05:50:18;;;;;;;8.37;3.97;;;;;;;;;;5106970;28;20206;-74
2023/10/06 05:52:51;;;;;;;5.83;4.00;;;;;;;;;;5106641;28;20226;-76
2023/10/06 05:55:19;;;;;;;6.23;4.00;;;;;;;;;;5108064;28;20202;-75
2023/10/06 05:57:52;;;;;;;5.63;3.67;;;;;;;;;;5106028;28;20293;-75
2023/10/06 06:00:24;;;;;;;8.50;4.27;;;;;;;;;;5105086;28;20423;-75
2023/10/06 06:02:52;;;;;;;8.80;4.70;;;;;;;;;;5107469;28;20696;-75
2023/10/06 06:05:21;;;;;;;8.23;4.10;;;;;;;;;;5107168;28;20201;-76
2023/10/06 06:07:51;;;;;;;6.60;3.97;;;;;;;;;;5107107;28;20201;-75
2023/10/06 06:10:18;;;;;;;7.53;4.40;;;;;;;;;;5104896;28;20682;-75
2023/10/06 06:12:47;;;;;;;6.17;4.07;;;;;;;;;;5105802;28;20316;-76
2023/10/06 06:15:16;;;;;;;6.73;3.97;;;;;;;;;;5106897;28;20327;-75
2023/10/06 06:17:44;;;;;;;6.83;4.23;;;;;;;;;;5105729;28;20201;-76
2023/10/06 06:20:14;;;;;;;7.33;3.87;;;;;;;;;;5107228;28;20914;-75
2023/10/06 06:22:49;;;;;;;7.20;4.30;;;;;;;;;;5106218;28;20263;-75
2023/10/06 06:25:17;;;;;;;6.17;3.77;;;;;;;;;;5107472;28;20198;-75
2023/10/06 06:27:45;;;;;;;7.80;3.97;;;;;;;;;;5106553;28;20231;-75
2023/10/06 06:30:18;;;;;;;7.40;3.87;;;;;;;;;;5106218;28;20763;-75
2023/10/06 06:32:45;;;;;;;7.70;3.97;;;;;;;;;;5105545;28;20254;-76
2023/10/06 06:35:13;;;;;;;6.23;4.13;;;;;;;;;;5106326;28;20296;-76
2023/10/06 06:37:42;;;;;;;9.57;4.70;;;;;;;;;;5107258;28;20205;-75
2023/10/06 06:40:13;;;;;;;7.03;4.60;;;;;;;;;;5106779;28;20208;-76
2023/10/06 06:42:40;;;;;;;8.00;4.97;;;;;;;;;;5106473;28;20202;-75
2023/10/06 06:45:08;;;;;;;10.20;6.57;;;;;;;;;;5106066;28;20284;-75
2023/10/06 06:47:36;;;;;;;11.70;7.10;;;;;;;;;;5107197;28;20204;-76
2023/10/06 06:50:04;;;;;;;9.47;6.53;;;;;;;;;;5103911;28;20197;-76
2023/10/06 06:52:31;;;;;;;9.43;6.57;;;;;;;;;;5106726;28;20251;-75
2023/10/06 06:54:58;;;;;;;12.90;6.63;;;;;;;;;;5106680;28;20251;-75
2023/10/06 06:57:27;;;;;;;14.30;7.00;;;;;;;;;;5106184;28;20578;-76
2023/10/06 06:59:54;;;;;;;12.23;5.83;;;;;;;;;;5106637;28;20225;-75
2023/10/06 07:02:21;;;;;;;13.53;5.10;;;;;;;;;;5106632;28;20233;-76
2023/10/06 07:04:48;;;;;;;8.10;4.30;;;;;;;;;;5105579;28;20237;-75
2023/10/06 07:07:16;;;;;;;8.53;4.43;;;;;;;;;;5107040;28;20654;-76
2023/10/06 07:09:43;;;;;;;7.50;4.63;;;;;;;;;;5105778;28;20202;-76
2023/10/06 07:12:10;;;;;;;9.27;4.63;;;;;;;;;;5106416;28;20274;-75
2023/10/06 07:14:39;;;;;;;7.33;4.23;;;;;;;;;;5106490;28;20316;-76
2023/10/06 07:17:06;;;;;;;9.97;5.00;;;;;;;;;;5103246;28;20229;-76
2023/10/06 07:19:34;;;;;;;8.80;4.90;;;;;;;;;;5106165;28;20646;-76
2023/10/06 07:22:01;;;;;;;10.77;4.67;;;;;;;;;;5107350;28;20217;-76
2023/10/06 07:24:28;;;;;;;8.27;4.60;;;;;;;;;;5106729;28;20255;-76
2023/10/06 07:26:56;;;;;;;10.37;4.90;;;;;;;;;;5105769;28;20209;-76
2023/10/06 07:29:23;;;;;;;8.40;4.30;;;;;;;;;;5106713;28;20226;-77
2023/10/06 07:31:54;;;;;;;9.50;4.37;;;;;;;;;;5105506;28;20624;-76
2023/10/06 07:34:21;;;;;;;7.20;4.00;;;;;;;;;;5106686;28;20229;-75
2023/10/06 07:36:48;;;;;;;5.78;3.83;;;;;;;;;;5106063;28;20212;-77
2023/10/06 07:39:20;;;;;;;5.90;4.32;;;;;;;;;;5106436;28;20229;-77
2023/10/06 07:41:47;;;;;;;6.60;3.85;;;;;;;;;;5106084;28;20202;-77
2023/10/06 07:44:15;;;;;;;5.18;3.90;;;;;;;;;;5106506;28;20293;-76
2023/10/06 07:46:42;;;;;;;8.20;3.20;;;;;;;;;;5105781;28;20198;-76
2023/10/06 07:49:11;;;;;;;5.55;3.45;;;;;;;;;;5106927;28;20204;-76
2023/10/06 07:51:38;;;;;;;5.85;3.38;;;;;;;;;;5105868;28;20194;-77
2023/10/06 07:54:06;;;;;;;7.65;3.50;;;;;;;;;;5105979;28;20320;-78
2023/10/06 07:56:33;;;;;;;7.00;4.10;;;;;;;;;;5106873;28;20290;-78
2023/10/06 07:59:00;;;;;;;5.78;3.95;;;;;;;;;;5110774;28;20316;-77
2023/10/06 08:01:27;;;;;;;10.23;3.95;;;;;;;;;;5110921;28;20206;-77
2023/10/06 08:03:55;;;;;;;8.68;4.00;;;;;;;;;;5111255;28;20220;-78
2023/10/06 08:06:24;;;;;;;5.78;3.95;;;;;;;;;;5110241;28;20316;-77
2023/10/06 08:08:51;;;;;;;9.98;4.15;;;;;;;;;;5110288;28;20194;-77
2023/10/06 08:11:18;;;;;;;8.40;4.50;;;;;;;;;;5111189;28;20281;-78
2023/10/06 08:13:45;;;;;;;9.07;4.05;;;;;;;;;;5110369;28;20241;-78
2023/10/06 08:16:13;;;;;;;10.05;3.92;;;;;;;;;;5109951;28;20236;-78
2023/10/06 08:18:40;;;;;;;9.18;4.28;;;;;;;;;;5108711;28;20197;-77
2023/10/06 08:21:07;;;;;;;11.02;4.50;;;;;;;;;;5109963;28;20284;-77
2023/10/06 08:23:36;;;;;;;11.07;4.20;;;;;;;;;;5110082;28;20319;-78
2023/10/06 08:26:07;;;;;;;7.00;4.18;;;;;;;;;;5111185;28;20198;-78
2023/10/06 08:28:35;;;;;;;8.10;4.18;;;;;;;;;;5107598;28;20251;-78
2023/10/06 08:31:02;;;;;;;7.88;4.15;;;;;;;;;;5110566;28;21343;-78
2023/10/06 08:33:29;;;;;;;8.57;4.20;;;;;;;;;;5110601;28;20252;-77
2023/10/06 08:35:57;;;;;;;6.75;4.47;;;;;;;;;;5109342;28;20297;-78
2023/10/06 08:38:25;;;;;;;11.90;4.57;;;;;;;;;;5109836;28;20674;-78
2023/10/06 08:40:56;;;;;;;7.30;3.80;;;;;;;;;;5110067;28;20931;-78
2023/10/06 08:43:26;;;;;;;11.23;4.20;;;;;;;;;;5109884;28;20266;-78
2023/10/06 08:45:55;;;;;;;10.23;4.50;;;;;;;;;;5109600;28;20244;-79
2023/10/06 08:48:24;;;;;;;8.80;4.70;;;;;;;;;;5110066;28;20206;-79
2023/10/06 08:50:54;;;;;;;7.55;4.05;;;;;;;;;;5110025;28;20585;-78
2023/10/06 08:53:23;;;;;;;7.57;4.18;;;;;;;;;;5109466;28;20621;-78
2023/10/06 08:55:50;;;;;;;7.70;4.35;;;;;;;;;;5108858;27;20210;-79
2023/10/06 08:58:20;;;;;;;10.85;5.13;;;;;;;;;;5109746;28;20204;-78
2023/10/06 09:00:47;;;;;;;10.88;4.60;;;;;;;;;;5109152;28;20686;-78
2023/10/06 09:03:15;;;;;;;7.50;4.45;;;;;;;;;;5110062;28;20225;-79
2023/10/06 09:05:43;;;;;;;8.50;5.30;;;;;;;;;;5108425;28;20692;-79
2023/10/06 09:08:11;;;;;;;9.18;4.55;;;;;;;;;;5108774;28;20237;-78
2023/10/06 09:10:40;;;;;;;8.43;4.40;;;;;;;;;;5108871;28;20225;-80
2023/10/06 09:13:10;;;;;;;7.72;4.55;;;;;;;;;;5109547;28;20619;-79
2023/10/06 09:15:40;;;;;;;6.70;4.80;;;;;;;;;;5108574;28;21537;-80
2023/10/06 09:18:23;;;;;;;7.82;4.15;;;;;;;;;;5109145;27;20284;-79
2023/10/06 09:20:51;;;;;;;6.35;4.07;;;;;;;;;;5107119;28;20253;-80
2023/10/06 09:23:31;;;;;;;6.72;3.72;;;;;;;;;;5109859;28;20243;-80
2023/10/06 09:26:00;;;;;;;7.70;3.20;;;;;;;;;;5109444;28;20202;-80
2023/10/06 09:28:27;;;;;;;5.90;3.28;;;;;;;;;;5108801;28;20205;-80
2023/10/06 09:31:01;;;;;;;5.43;3.45;;;;;;;;;;5109013;28;20206;-80
2023/10/06 09:33:28;;;;;;;5.70;2.90;;;;;;;;;;5108898;28;20619;-78
2023/10/06 09:36:07;;;;;;;6.45;3.00;;;;;;;;;;5108997;28;20237;-80
2023/10/06 09:38:34;;;;;;;4.78;2.95;;;;;;;;;;5106408;28;20636;-80
2023/10/06 09:41:01;;;;;;;5.85;2.88;;;;;;;;;;5109117;27;20708;-81
2023/10/06 09:43:30;;;;;;;5.70;2.60;;;;;;;;;;5108859;28;20617;-80
2023/10/06 09:46:02;;;;;;;5.10;2.65;;;;;;;;;;5108408;28;20209;-80
2023/10/06 09:48:33;;;;;;;4.03;2.50;;;;;;;;;;5109284;28;20198;-80
2023/10/06 09:51:01;;;;;;;6.63;2.67;;;;;;;;;;5108827;28;20209;-80
2023/10/06 09:53:30;;;;;;;5.65;2.60;;;;;;;;;;5109167;28;20236;-79
2023/10/06 09:55:57;;;;;;;5.43;2.20;;;;;;;;;;5108087;28;20281;-80
2023/10/06 09:58:25;;;;;;;5.57;2.25;;;;;;;;;;5108685;28;20260;-80
2023/10/06 10:00:52;;;;;;;4.63;2.63;;;;;;;;;;5108282;28;20240;-78
2023/10/06 10:03:21;;;;;;;5.10;2.38;;;;;;;;;;5108668;28;20201;-80
2023/10/06 10:05:49;;;;;;;6.95;2.95;;;;;;;;;;5108097;28;20197;-80
2023/10/06 10:08:16;;;;;;;4.60;2.50;;;;;;;;;;5108553;28;20202;-81
2023/10/06 10:10:45;;;;;;;4.53;2.70;;;;;;;;;;5108473;28;20251;-80
2023/10/06 10:13:20;;;;;;;7.60;2.95;;;;;;;;;;5108801;28;20205;-79
2023/10/06 10:15:57;;;;;;;6.07;2.88;;;;;;;;;;5107389;28;20244;-80
2023/10/06 10:18:29;;;;;;;6.25;2.50;;;;;;;;;;5107690;28;20209;-79
2023/10/06 10:20:59;;;;;;;5.10;2.05;;;;;;;;;;5106906;28;20206;-80
2023/10/06 10:23:29;;;;;;;6.68;2.72;;;;;;;;;;5107815;28;20216;-81
2023/10/06 10:26:03;;;;;;;3.13;2.22;;;;;;;;;;5108382;28;20209;-81
2023/10/06 10:28:30;;;;;;;5.13;2.33;;;;;;;;;;5107845;28;20193;-80
2023/10/06 10:30:59;;;;;;;4.15;2.60;;;;;;;;;;5107638;28;20202;-80
2023/10/06 10:33:29;;;;;;;6.03;2.30;;;;;;;;;;5107392;28;20300;-81
2023/10/06 10:36:14;;;;;;;6.25;2.60;;;;;;;;;;5108216;28;20205;-81
2023/10/06 10:38:42;;;;;;;5.43;2.92;;;;;;;;;;5107609;28;20197;-81
2023/10/06 10:41:10;;;;;;;4.45;2.17;;;;;;;;;;5107895;28;20602;-81
2023/10/06 10:43:38;;;;;;;4.32;2.15;;;;;;;;;;5106831;28;20197;-81
2023/10/06 10:46:08;;;;;;;5.00;2.30;;;;;;;;;;5107757;28;20193;-81
2023/10/06 10:48:38;;;;;;;5.05;2.40;;;;;;;;;;5104651;28;20256;-81
2023/10/06 10:51:10;;;;;;;4.60;2.50;;;;;;;;;;5108074;28;20225;-81
2023/10/06 10:53:41;;;;;;;4.57;1.92;;;;;;;;;;5104585;28;20222;-81
2023/10/06 10:56:13;;;;;;;2.80;2.00;;;;;;;;;;5107824;28;20197;-80
2023/10/06 10:58:56;;;;;;;4.30;2.15;;;;;;;;;;5107510;28;20678;-81
2023/10/06 11:01:29;;;;;;;3.55;2.20;;;;;;;;;;5106987;28;20210;-81
2023/10/06 11:04:18;;;;;;;4.20;2.13;;;;;;;;;;5107153;28;20298;-81
2023/10/06 11:06:48;;;;;;;3.75;2.00;;;;;;;;;;5106828;28;20755;-81
2023/10/06 11:09:25;;;;;;;4.60;2.15;;;;;;;;;;5107546;28;20678;-79
2023/10/06 11:11:55;;;;;;;3.95;2.03;;;;;;;;;;5106672;28;20827;-80
2023/10/06 11:14:23;;;;;;;4.32;2.47;;;;;;;;;;5107627;28;21073;-80
2023/10/06 11:16:50;;;;;;;5.13;2.20;;;;;;;;;;5106491;28;20287;-78
2023/10/06 11:19:18;;;;;;;4.93;2.22;;;;;;;;;;5106911;28;20284;-82
2023/10/06 11:21:47;;;;;;;5.40;2.60;;;;;;;;;;5108181;28;20193;-79
2023/10/06 11:24:25;;;;;;;7.43;2.80;;;;;;;;;;5106889;28;20206;-81
2023/10/06 11:26:52;;;;;;;5.60;3.13;;;;;;;;;;5110456;28;21119;-79
2023/10/06 11:29:29;;;;;;;5.80;3.47;;;;;;;;;;5106410;28;20281;-80
2023/10/06 11:31:57;;;;;;;7.55;4.20;;;;;;;;;;5106262;28;20212;-81
2023/10/06 11:34:25;;;;;;;7.93;4.25;;;;;;;;;;5110523;28;21108;-81
2023/10/06 11:36:55;;;;;;;6.05;3.72;;;;;;;;;;5110314;28;20201;-80
2023/10/06 11:39:24;;;;;;;6.30;3.13;;;;;;;;;;5110011;28;20198;-79
2023/10/06 11:41:55;;;;;;;4.95;3.10;;;;;;;;;;5110464;28;20200;-78
2023/10/06 11:44:23;;;;;;;4.35;2.70;;;;;;;;;;5109268;28;20205;-78
2023/10/06 11:46:56;;;;;;;3.70;2.25;;;;;;;;;;5105979;28;20286;-80
2023/10/06 11:49:23;;;;;;;3.78;2.10;;;;;;;;;;5108879;28;21053;-79
2023/10/06 11:51:51;;;;;;;3.38;2.30;;;;;;;;;;5109753;28;20254;-80
2023/10/06 11:54:19;;;;;;;4.32;2.13;;;;;;;;;;5109812;28;20210;-80
2023/10/06 11:56:50;;;;;;;5.53;2.33;;;;;;;;;;5109878;28;20229;-80
2023/10/06 11:59:22;;;;;;;4.43;2.10;;;;;;;;;;5110147;28;20208;-80
2023/10/06 12:01:49;;;;;;;3.78;2.13;;;;;;;;;;5109472;28;20197;-81
2023/10/06 12:04:29;;;;;;;4.50;2.42;;;;;;;;;;5110614;28;20297;-81
2023/10/06 12:06:57;;;;;;;6.07;2.60;;;;;;;;;;5110922;28;20213;-81
2023/10/06 12:09:29;;;;;;;5.90;2.60;;;;;;;;;;5110467;28;20292;-81
2023/10/06 12:11:59;;;;;;;4.50;2.20;;;;;;;;;;5110639;28;20551;-82
2023/10/06 12:14:26;;;;;;;4.20;2.05;;;;;;;;;;5110625;28;20604;-81
2023/10/06 12:16:54;;;;;;;4.88;2.42;;;;;;;;;;5109685;28;20328;-82
2023/10/06 12:19:23;;;;;;;5.22;2.70;;;;;;;;;;5110685;28;20201;-81
2023/10/06 12:21:51;;;;;;;5.43;2.70;;;;;;;;;;5110314;28;20289;-81
2023/10/06 12:24:18;;;;;;;4.80;2.28;;;;;;;;;;5110439;28;20241;-81
2023/10/06 12:26:47;;;;;;;5.35;2.90;;;;;;;;;;5110645;28;20259;-81
2023/10/06 12:29:16;;;;;;;4.78;2.50;;;;;;;;;;5109903;28;20714;-81
2023/10/06 12:31:44;;;;;;;4.50;2.72;;;;;;;;;;5108518;28;20712;-81
2023/10/06 12:34:15;;;;;;;4.70;2.38;;;;;;;;;;5109903;28;20221;-80
2023/10/06 12:36:46;;;;;;;5.40;2.67;;;;;;;;;;5110038;28;20695;-81
2023/10/06 12:39:16;;;;;;;4.22;2.22;;;;;;;;;;5110098;28;20198;-80
2023/10/06 12:41:46;;;;;;;3.70;2.30;;;;;;;;;;5109655;28;20262;-82
2023/10/06 12:44:15;;;;;;;4.38;2.30;;;;;;;;;;5109354;28;20242;-82
2023/10/06 12:46:42;;;;;;;3.53;2.42;;;;;;;;;;5110111;28;20288;-82
2023/10/06 12:49:10;;;;;;;3.83;2.28;;;;;;;;;;5110477;28;20280;-81
2023/10/06 12:51:38;;;;;;;4.40;2.10;;;;;;;;;;5109902;28;20202;-81
2023/10/06 12:54:06;;;;;;;3.58;1.92;;;;;;;;;;5110323;28;20288;-80
2023/10/06 12:56:34;;;;;;;5.63;2.22;;;;;;;;;;5110571;28;20292;-81
2023/10/06 12:59:01;;;;;;;4.35;2.30;;;;;;;;;;5109892;28;20699;-81
2023/10/06 13:01:32;;;;;;;3.83;2.22;;;;;;;;;;5109576;28;20201;-81
2023/10/06 13:03:59;;;;;;;3.67;2.13;;;;;;;;;;5109743;28;20198;-81
2023/10/06 13:06:29;;;;;;;4.78;2.22;;;;;;;;;;5108327;28;20564;-82
2023/10/06 13:09:01;;;;;;;4.35;2.30;;;;;;;;;;5108604;28;20217;-81
2023/10/06 13:11:29;;;;;;;4.15;2.28;;;;;;;;;;5109620;28;20194;-81
2023/10/06 13:13:56;;;;;;;4.55;2.17;;;;;;;;;;5108601;28;20296;-81
2023/10/06 13:16:24;;;;;;;4.13;2.00;;;;;;;;;;5109508;28;20332;-81
2023/10/06 13:18:52;;;;;;;2.97;1.85;;;;;;;;;;5109110;28;20236;-81
2023/10/06 13:21:20;;;;;;;2.97;1.90;;;;;;;;;;5109590;28;20219;-81
2023/10/06 13:23:47;;;;;;;3.75;2.30;;;;;;;;;;5109134;28;20217;-77
2023/10/06 13:26:14;;;;;;;3.90;2.13;;;;;;;;;;5109381;28;20198;-78
2023/10/06 13:28:42;;;;;;;4.50;2.17;;;;;;;;;;5108359;28;20225;-78
2023/10/06 13:31:10;;;;;;;3.53;1.90;;;;;;;;;;5109405;28;20193;-76
2023/10/06 13:33:38;;;;;;;3.47;2.00;;;;;;;;;;5108818;28;20198;-79
2023/10/06 13:36:08;;;;;;;3.33;1.90;;;;;;;;;;5106593;28;20232;-79
2023/10/06 13:38:35;;;;;;;4.35;2.20;;;;;;;;;;5106538;28;20198;-81
2023/10/06 13:41:04;;;;;;;3.67;1.75;;;;;;;;;;5109246;28;20753;-80
2023/10/06 13:43:31;;;;;;;4.82;2.10;;;;;;;;;;5105680;28;20290;-79
2023/10/06 13:45:59;;;;;;;3.47;2.08;;;;;;;;;;5109026;28;20323;-80
2023/10/06 13:48:28;;;;;;;4.60;2.03;;;;;;;;;;5109143;28;20233;-80
2023/10/06 13:50:59;;;;;;;3.88;2.05;;;;;;;;;;5109437;28;20205;-81
2023/10/06 13:53:27;;;;;;;2.90;1.95;;;;;;;;;;5108689;28;20201;-80
2023/10/06 13:55:56;;;;;;;4.57;2.15;;;;;;;;;;5107661;28;20273;-80
2023/10/06 13:58:24;;;;;;;3.20;1.77;;;;;;;;;;5108807;28;20240;-80
2023/10/06 14:00:55;;;;;;;3.85;2.08;;;;;;;;;;5108447;28;20225;-78
2023/10/06 14:03:23;;;;;;;4.80;2.30;;;;;;;;;;5107050;28;20320;-80
2023/10/06 14:05:52;;;;;;;3.88;1.92;;;;;;;;;;5108086;28;20197;-80
2023/10/06 14:08:20;;;;;;;3.17;2.00;;;;;;;;;;5108397;28;20293;-80
2023/10/06 14:10:50;;;;;;;8.48;2.30;;;;;;;;;;5107688;28;20551;-81
2023/10/06 14:13:23;;;;;;;4.60;2.30;;;;;;;;;;5108751;28;20202;-81
2023/10/06 14:15:54;;;;;;;4.70;2.25;;;;;;;;;;5107866;28;20713;-80
2023/10/06 14:18:24;;;;;;;5.85;2.25;;;;;;;;;;5108402;28;20666;-80
2023/10/06 14:20:52;;;;;;;3.88;2.20;;;;;;;;;;5106451;28;20205;-80
2023/10/06 14:23:23;;;;;;;5.68;2.15;;;;;;;;;;5107351;28;20198;-80
2023/10/06 14:25:55;;;;;;;5.47;2.08;;;;;;;;;;5107523;28;20212;-80
2023/10/06 14:28:23;;;;;;;3.35;1.95;;;;;;;;;;5106395;28;20202;-80
2023/10/06 14:30:53;;;;;;;5.10;2.22;;;;;;;;;;5106619;28;20241;-80
2023/10/06 14:33:23;;;;;;;4.65;2.03;;;;;;;;;;5107938;28;20286;-80
2023/10/06 14:35:53;;;;;;;3.35;2.13;;;;;;;;;;5107827;28;20244;-80
2023/10/06 14:46:39;;;;;;;3.88;2.40;;;;;;;;;;5108555;28;20297;-80
2023/10/06 14:49:06;;;;;;;4.68;2.40;;;;;;;;;;5111357;28;20286;-81
2023/10/06 14:51:34;;;;;;;4.65;2.42;;;;;;;;;;5111536;28;20626;-80
2023/10/06 14:54:02;;;;;;;5.95;2.53;;;;;;;;;;5111336;28;20258;-80
2023/10/06 14:56:31;;;;;;;6.38;2.25;;;;;;;;;;5108587;28;20228;-81
2023/10/06 14:58:58;;;;;;;8.82;2.55;;;;;;;;;;5108005;28;20198;-80
2023/10/06 15:01:26;;;;;;;5.90;1.95;;;;;;;;;;5111572;28;20244;-80
2023/10/06 15:03:56;;;;;;;3.97;1.73;;;;;;;;;;5106302;28;20209;-80